Time;durP1;ratioP1;P1;durP2;ratioP2;P2;SDS_P1;SDS_P2;PMS_P1;PMS_P2;Temp;Humidity;BMP_temperature;BMP_pressure;BME280_temperature;BME280_humidity;BME280_pressure;Samples;Min_cycle;Max_cycle;Signal;HPM_P1;HPM_P2
2022/01/29 00:01:01;;;;;;;17.80;11.30;;;17.40;52.30;;;;;;5008832;28;98541;-67
2022/01/29 00:03:27;;;;;;;17.20;11.00;;;17.40;52.30;;;;;;5009828;28;98894;-67
2022/01/29 00:05:53;;;;;;;17.67;10.93;;;17.30;52.30;;;;;;5008804;28;100545;-67
2022/01/29 00:08:19;;;;;;;15.55;10.68;;;17.40;52.30;;;;;;5008808;28;100802;-67
2022/01/29 00:10:48;;;;;;;17.52;11.35;;;17.40;52.30;;;;;;5008607;28;98860;-67
2022/01/29 00:13:14;;;;;;;16.05;10.65;;;17.30;52.30;;;;;;5009031;28;99090;-68
2022/01/29 00:15:40;;;;;;;16.40;10.93;;;17.30;52.40;;;;;;5007901;28;100935;-68
2022/01/29 00:18:07;;;;;;;15.40;10.25;;;17.30;52.30;;;;;;4989956;28;113118;-67
2022/01/29 00:20:33;;;;;;;17.63;10.43;;;17.30;52.20;;;;;;5008908;28;99185;-68
2022/01/29 00:22:58;;;;;;;16.05;10.25;;;17.30;52.20;;;;;;5009412;28;98632;-67
2022/01/29 00:25:24;;;;;;;16.10;10.45;;;17.30;52.30;;;;;;5009262;28;99893;-67
2022/01/29 00:27:50;;;;;;;15.90;9.90;;;17.30;52.30;;;;;;5008825;28;100103;-68
2022/01/29 00:30:18;;;;;;;14.95;9.70;;;17.20;52.30;;;;;;5009161;28;99430;-66
2022/01/29 00:32:44;;;;;;;16.30;9.73;;;17.30;52.30;;;;;;5010764;28;98167;-66
2022/01/29 00:35:10;;;;;;;16.63;10.48;;;17.20;52.20;;;;;;5009033;28;99099;-66
2022/01/29 00:37:36;;;;;;;14.30;9.55;;;17.30;52.30;;;;;;5008294;28;99247;-66
2022/01/29 00:40:04;;;;;;;14.98;10.00;;;17.30;52.30;;;;;;5009121;28;99403;-66
2022/01/29 00:42:29;;;;;;;14.73;9.88;;;17.30;52.30;;;;;;5009086;28;99140;-66
2022/01/29 00:44:55;;;;;;;16.48;10.02;;;17.30;52.40;;;;;;5008043;28;100365;-66
2022/01/29 00:47:20;;;;;;;15.00;9.60;;;17.20;52.30;;;;;;5007878;28;98710;-66
2022/01/29 00:49:46;;;;;;;13.98;9.32;;;17.20;52.30;;;;;;5007949;28;99112;-66
2022/01/29 00:52:12;;;;;;;13.50;9.55;;;17.20;52.40;;;;;;5009236;28;98616;-66
2022/01/29 00:54:38;;;;;;;14.98;9.35;;;17.20;52.30;;;;;;5008692;28;100103;-66
2022/01/29 00:57:05;;;;;;;14.75;9.10;;;17.20;52.40;;;;;;5008785;28;99862;-66
2022/01/29 00:59:32;;;;;;;14.63;9.52;;;17.20;52.30;;;;;;5009461;28;99011;-66
2022/01/29 01:01:58;;;;;;;13.48;9.20;;;17.20;52.40;;;;;;5009197;28;98558;-66
2022/01/29 01:04:23;;;;;;;14.40;9.02;;;17.20;52.40;;;;;;4990822;28;100966;-66
2022/01/29 01:06:50;;;;;;;12.02;8.70;;;17.10;52.30;;;;;;5008328;28;111309;-66
2022/01/29 01:09:18;;;;;;;14.57;9.75;;;17.20;52.40;;;;;;5010102;28;98466;-67
2022/01/29 01:11:45;;;;;;;12.07;8.50;;;17.20;52.40;;;;;;5012823;28;98879;-66
2022/01/29 01:14:11;;;;;;;12.75;8.75;;;17.20;53.30;;;;;;5012428;28;99017;-67
2022/01/29 01:16:36;;;;;;;11.60;8.45;;;17.20;52.40;;;;;;5010634;28;100887;-66
2022/01/29 01:19:02;;;;;;;14.43;8.40;;;17.10;52.30;;;;;;5008965;28;98670;-66
2022/01/29 01:21:28;;;;;;;12.55;9.07;;;17.10;52.30;;;;;;5009239;28;98284;-66
2022/01/29 01:23:55;;;;;;;11.20;8.63;;;17.10;52.30;;;;;;5008838;28;99064;-66
2022/01/29 01:26:20;;;;;;;13.65;8.63;;;17.10;52.30;;;;;;5008013;28;99587;-66
2022/01/29 01:28:46;;;;;;;12.30;8.60;;;17.10;52.30;;;;;;5008517;28;99612;-66
2022/01/29 01:31:12;;;;;;;12.60;8.43;;;17.10;52.30;;;;;;5008094;28;99002;-67
2022/01/29 01:33:37;;;;;;;11.02;8.23;;;17.10;52.30;;;;;;5008086;28;100289;-66
2022/01/29 01:36:06;;;;;;;13.77;8.95;;;17.10;52.30;;;;;;5008266;28;98878;-66
2022/01/29 01:38:47;;;;;;;12.48;8.00;;;17.10;52.30;;;;;;5009163;28;98770;-68
2022/01/29 01:41:17;;;;;;;12.90;8.30;;;17.00;52.30;;;;;;5009127;28;98534;-66
2022/01/29 01:43:43;;;;;;;11.48;8.05;;;17.00;52.30;;;;;;5008282;28;100540;-66
2022/01/29 01:46:08;;;;;;;14.27;8.38;;;17.00;52.20;;;;;;5008453;28;99873;-65
2022/01/29 01:48:34;;;;;;;11.75;8.43;;;17.00;52.30;;;;;;5008841;28;98618;-66
2022/01/29 01:51:00;;;;;;;11.25;7.75;;;17.00;52.30;;;;;;5008628;28;99051;-67
2022/01/29 01:53:25;;;;;;;12.52;8.15;;;17.00;52.20;;;;;;5008459;28;99922;-65
2022/01/29 01:55:51;;;;;;;11.88;7.90;;;17.00;52.30;;;;;;5007900;28;100004;-67
2022/01/29 01:58:17;;;;;;;12.82;8.32;;;17.00;52.30;;;;;;5008494;28;98807;-66
2022/01/29 02:00:43;;;;;;;10.25;7.63;;;17.00;52.30;;;;;;5008728;28;98614;-67
2022/01/29 02:03:10;;;;;;;11.57;8.27;;;17.00;52.40;;;;;;5008798;28;99302;-66
2022/01/29 02:05:35;;;;;;;11.43;7.80;;;17.00;53.30;;;;;;5008135;28;99056;-66
2022/01/29 02:08:02;;;;;;;11.77;7.28;;;17.00;52.30;;;;;;5009197;28;98587;-66
2022/01/29 02:10:30;;;;;;;13.05;7.90;;;17.00;52.30;;;;;;5009410;28;97891;-66
2022/01/29 02:13:00;;;;;;;11.63;7.45;;;17.00;52.40;;;;;;5008074;28;99028;-66
2022/01/29 02:15:26;;;;;;;11.52;7.80;;;17.00;52.30;;;;;;5008051;28;99037;-66
2022/01/29 02:17:52;;;;;;;10.93;7.65;;;17.00;52.30;;;;;;5007983;28;99731;-66
2022/01/29 02:20:24;;;;;;;12.07;7.55;;;16.90;52.20;;;;;;5008611;28;98859;-66
2022/01/29 02:22:52;;;;;;;11.07;7.20;;;17.00;52.30;;;;;;5008271;28;100632;-66
2022/01/29 02:25:35;;;;;;;9.27;7.13;;;17.00;52.40;;;;;;5007586;28;100019;-66
2022/01/29 02:28:07;;;;;;;10.80;7.30;;;16.90;52.30;;;;;;5008408;28;99045;-66
2022/01/29 02:30:35;;;;;;;10.40;7.00;;;16.90;52.30;;;;;;5008565;28;98536;-66
2022/01/29 02:33:08;;;;;;;10.80;7.32;;;16.90;52.30;;;;;;5007707;28;100178;-66
2022/01/29 02:35:36;;;;;;;;;;;16.90;52.40;;;;;;5008724;28;100138;-66
2022/01/29 02:38:02;;;;;;;9.27;6.57;;;16.90;52.40;;;;;;5008781;28;99576;-68
2022/01/29 02:40:28;;;;;;;10.00;6.57;;;16.90;52.50;;;;;;5008233;28;98873;-66
2022/01/29 02:42:56;;;;;;;9.77;6.45;;;16.90;52.50;;;;;;5006736;28;100575;-66
2022/01/29 02:45:22;;;;;;;10.95;6.70;;;16.90;52.40;;;;;;5006261;28;101199;-66
2022/01/29 02:47:48;;;;;;;10.73;6.53;;;16.90;52.40;;;;;;5008466;28;98713;-67
2022/01/29 02:50:13;;;;;;;7.72;6.00;;;16.90;52.50;;;;;;5008545;28;98537;-66
2022/01/29 02:52:42;;;;;;;7.30;5.70;;;16.90;52.40;;;;;;4989635;28;102220;-66
2022/01/29 02:55:08;;;;;;;10.07;6.22;;;16.90;52.40;;;;;;5011831;28;100324;-67
2022/01/29 02:57:33;;;;;;;9.88;6.03;;;16.80;52.40;;;;;;5010997;28;98551;-66
2022/01/29 03:00:00;;;;;;;8.65;5.95;;;16.80;52.40;;;;;;5009340;28;97985;-67
2022/01/29 03:02:28;;;;;;;8.98;5.53;;;16.90;52.50;;;;;;5007918;28;100058;-66
2022/01/29 03:04:56;;;;;;;9.88;5.78;;;16.80;52.40;;;;;;5007161;28;99796;-67
2022/01/29 03:07:21;;;;;;;7.38;5.63;;;16.80;52.50;;;;;;5007413;28;99903;-66
2022/01/29 03:09:47;;;;;;;8.40;6.00;;;16.80;52.40;;;;;;5007507;28;98630;-66
2022/01/29 03:12:13;;;;;;;7.57;6.03;;;16.80;52.40;;;;;;5007532;28;99343;-66
2022/01/29 03:14:38;;;;;;;8.20;5.75;;;16.80;52.50;;;;;;5007513;28;99108;-66
2022/01/29 03:17:04;;;;;;;9.10;5.38;;;16.80;52.50;;;;;;5007581;28;99142;-67
2022/01/29 03:19:29;;;;;;;9.90;6.07;;;16.80;52.50;;;;;;5008445;28;99144;-67
2022/01/29 03:21:56;;;;;;;7.47;5.40;;;16.80;52.50;;;;;;5007052;28;103766;-66
2022/01/29 03:24:21;;;;;;;7.45;5.43;;;16.80;52.50;;;;;;5008461;28;98755;-66
2022/01/29 03:26:47;;;;;;;7.25;5.70;;;16.80;52.50;;;;;;5007701;28;99102;-66
2022/01/29 03:29:12;;;;;;;8.95;5.13;;;16.80;52.50;;;;;;5007457;28;98837;-66
2022/01/29 03:31:38;;;;;;;7.82;5.60;;;16.80;52.50;;;;;;5006171;28;110538;-66
2022/01/29 03:34:03;;;;;;;9.20;5.38;;;16.80;52.60;;;;;;5006749;28;100186;-66
2022/01/29 03:36:30;;;;;;;9.65;5.75;;;16.80;52.50;;;;;;5006632;28;99208;-66
2022/01/29 03:38:56;;;;;;;7.25;5.38;;;16.80;52.60;;;;;;5006615;28;98841;-66
2022/01/29 03:41:22;;;;;;;8.25;5.45;;;16.80;52.50;;;;;;5006213;28;99560;-66
2022/01/29 03:43:51;;;;;;;7.72;5.10;;;16.70;52.60;;;;;;4987929;28;102162;-66
2022/01/29 03:46:16;;;;;;;7.68;4.80;;;16.70;52.60;;;;;;5006534;28;98587;-67
2022/01/29 03:48:42;;;;;;;7.80;4.95;;;16.70;52.60;;;;;;5007972;28;97790;-66
2022/01/29 03:51:08;;;;;;;6.85;4.80;;;16.70;52.60;;;;;;5006544;28;99105;-67
2022/01/29 03:53:33;;;;;;;8.27;4.95;;;16.70;52.60;;;;;;5006385;28;99359;-66
2022/01/29 03:55:59;;;;;;;8.05;5.05;;;16.70;52.60;;;;;;5008462;28;99743;-66
2022/01/29 03:58:25;;;;;;;6.07;4.55;;;16.70;52.70;;;;;;5010362;28;99121;-65
2022/01/29 04:00:51;;;;;;;6.40;4.60;;;16.70;52.60;;;;;;5009429;28;99092;-66
2022/01/29 04:03:16;;;;;;;8.48;4.88;;;16.70;52.60;;;;;;5009335;28;99745;-66
2022/01/29 04:05:44;;;;;;;8.10;4.80;;;16.70;52.70;;;;;;5010125;28;99026;-65
2022/01/29 04:08:16;;;;;;;7.18;4.50;;;16.70;52.70;;;;;;5010681;28;98730;-66
2022/01/29 04:10:42;;;;;;;8.13;4.95;;;16.70;52.60;;;;;;5010184;28;99608;-65
2022/01/29 04:13:11;;;;;;;7.97;4.55;;;16.70;52.70;;;;;;5009616;28;98774;-66
2022/01/29 04:15:37;;;;;;;7.38;4.35;;;16.70;52.60;;;;;;5008711;28;99384;-66
2022/01/29 04:18:03;;;;;;;5.85;4.65;;;16.70;52.70;;;;;;5010253;28;98633;-66
2022/01/29 04:20:28;;;;;;;7.55;4.32;;;16.70;52.70;;;;;;5010117;28;99270;-66
2022/01/29 04:22:55;;;;;;;7.07;4.28;;;16.70;52.70;;;;;;5009310;28;101495;-66
2022/01/29 04:25:23;;;;;;;6.25;4.03;;;16.70;52.70;;;;;;5010795;28;98589;-66
2022/01/29 04:27:48;;;;;;;7.35;4.18;;;16.70;52.70;;;;;;5010781;28;99062;-65
2022/01/29 04:35:16;;;;;;;6.38;4.10;;;16.70;52.70;;;;;;5008509;28;100326;-66
2022/01/29 04:37:41;;;;;;;6.70;4.10;;;16.60;52.70;;;;;;5010530;28;98804;-66
2022/01/29 04:40:08;;;;;;;5.75;4.00;;;16.70;52.80;;;;;;4991937;28;102148;-69
2022/01/29 04:42:33;;;;;;;7.10;4.22;;;16.60;52.60;;;;;;5009326;28;98958;-67
2022/01/29 04:44:59;;;;;;;7.28;4.35;;;16.60;52.70;;;;;;5008307;28;99471;-66
2022/01/29 04:47:25;;;;;;;7.28;4.20;;;16.60;52.70;;;;;;5009685;28;98504;-66
2022/01/29 04:49:50;;;;;;;7.68;4.10;;;16.60;52.70;;;;;;5009953;28;99012;-66
2022/01/29 04:52:16;;;;;;;6.20;3.95;;;16.60;52.70;;;;;;5009510;28;99128;-66
2022/01/29 04:54:42;;;;;;;4.53;3.75;;;16.60;52.80;;;;;;4992151;28;98715;-66
2022/01/29 04:57:07;;;;;;;6.10;3.90;;;16.60;52.80;;;;;;5011167;28;98653;-65
2022/01/29 04:59:33;;;;;;;5.68;3.40;;;16.60;52.80;;;;;;5012543;28;99097;-66
2022/01/29 05:01:58;;;;;;;5.70;3.78;;;16.60;52.80;;;;;;5014270;28;98786;-66
2022/01/29 05:04:24;;;;;;;6.28;3.45;;;16.60;52.90;;;;;;5013786;28;98612;-66
2022/01/29 05:06:49;;;;;;;5.57;3.55;;;16.70;52.90;;;;;;5008721;28;98974;-66
2022/01/29 05:09:15;;;;;;;5.78;3.22;;;16.90;52.90;;;;;;5008325;28;111501;-65
2022/01/29 05:11:44;;;;;;;4.90;3.05;;;17.00;52.60;;;;;;5008711;28;100554;-66
2022/01/29 05:14:18;;;;;;;5.50;3.30;;;17.20;52.20;;;;;;5009318;28;98989;-66
2022/01/29 05:27:40;;;;;;;5.53;2.85;;;18.00;50.70;;;;;;5009988;28;98450;-66
2022/01/29 05:30:05;;;;;;;3.47;2.60;;;18.10;50.50;;;;;;5008297;28;100116;-66
2022/01/29 05:32:31;;;;;;;3.53;2.50;;;18.20;50.20;;;;;;5008063;28;100704;-68
2022/01/29 05:34:58;;;;;;;5.85;2.58;;;18.20;50.10;;;;;;5008833;28;99793;-66
2022/01/29 05:37:23;;;;;;;5.55;2.70;;;18.30;50.10;;;;;;5009459;28;99225;-66
2022/01/29 05:39:49;;;;;;;4.80;2.80;;;18.30;50.10;;;;;;5008260;28;98983;-66
2022/01/29 05:42:14;;;;;;;5.30;2.50;;;18.30;50.10;;;;;;5009399;28;98954;-65
2022/01/29 05:44:40;;;;;;;5.97;2.88;;;18.30;50.10;;;;;;5008246;28;98829;-66
2022/01/29 05:47:06;;;;;;;3.63;2.45;;;18.30;50.00;;;;;;5009668;28;98617;-66
2022/01/29 05:49:31;;;;;;;4.25;2.42;;;18.30;49.90;;;;;;5007494;28;99368;-65
2022/01/29 05:51:58;;;;;;;4.72;2.38;;;18.40;50.00;;;;;;5009289;28;102309;-67
2022/01/29 05:54:23;;;;;;;3.88;2.15;;;18.40;50.00;;;;;;5008761;28;99072;-65
2022/01/29 05:56:49;;;;;;;4.05;2.47;;;18.40;49.90;;;;;;5009807;28;99007;-67
2022/01/29 05:59:14;;;;;;;4.38;2.33;;;18.50;49.90;;;;;;5008503;28;108909;-67
2022/01/29 06:01:42;;;;;;;3.70;2.03;;;18.50;49.90;;;;;;5009509;28;99514;-66
2022/01/29 06:04:10;;;;;;;3.78;1.88;;;18.50;49.80;;;;;;5009709;28;98559;-66
2022/01/29 06:06:35;;;;;;;5.22;2.13;;;18.50;49.70;;;;;;5010596;28;99009;-67
2022/01/29 06:09:04;;;;;;;4.70;2.28;;;18.60;49.80;;;;;;5008784;28;108266;-66
2022/01/29 06:11:34;;;;;;;4.25;2.10;;;18.60;50.60;;;;;;5009368;28;99980;-67
2022/01/29 06:14:00;;;;;;;4.55;2.17;;;18.60;49.60;;;;;;5009766;28;98948;-66
2022/01/29 06:16:27;;;;;;;5.60;2.10;;;18.60;49.80;;;;;;5009932;28;98230;-66
2022/01/29 06:18:53;;;;;;;4.22;1.77;;;18.60;49.80;;;;;;5008884;28;99961;-66
2022/01/29 06:21:19;;;;;;;4.30;1.80;;;18.70;50.00;;;;;;5009350;28;99206;-66
2022/01/29 06:23:45;;;;;;;7.15;2.20;;;18.60;50.00;;;;;;5009049;28;99434;-65
2022/01/29 06:26:13;;;;;;;4.65;2.20;;;18.70;49.90;;;;;;5008834;28;99232;-66
2022/01/29 06:28:39;;;;;;;4.45;1.90;;;18.70;49.90;;;;;;5008387;28;100043;-66
2022/01/29 06:31:06;;;;;;;4.70;2.17;;;18.70;49.90;;;;;;5008240;28;100512;-66
2022/01/29 06:33:32;;;;;;;5.13;2.17;;;18.70;50.00;;;;;;5008433;28;99181;-67
2022/01/29 06:35:58;;;;;;;4.60;2.33;;;18.70;50.10;;;;;;5009644;28;98632;-66
2022/01/29 06:38:25;;;;;;;3.35;1.88;;;18.70;50.20;;;;;;5009166;28;99372;-66
2022/01/29 06:40:53;;;;;;;4.50;2.25;;;18.70;50.30;;;;;;5009210;28;99000;-67
2022/01/29 06:43:18;;;;;;;4.68;2.00;;;18.60;50.50;;;;;;5011173;28;98753;-66
2022/01/29 06:45:55;;;;;;;4.03;2.00;;;18.60;50.70;;;;;;5013212;28;98690;-67
2022/01/29 06:48:21;;;;;;;4.05;2.00;;;18.60;51.90;;;;;;5010998;28;101054;-66
2022/01/29 06:50:47;;;;;;;4.05;1.60;;;18.50;50.90;;;;;;5010193;28;99927;-68
2022/01/29 06:53:12;;;;;;;6.28;2.25;;;18.50;51.00;;;;;;5009222;28;98600;-65
2022/01/29 06:55:39;;;;;;;5.28;2.00;;;18.50;51.20;;;;;;5009742;28;98877;-67
2022/01/29 06:58:05;;;;;;;4.68;1.80;;;18.40;51.50;;;;;;5008810;28;99208;-67
2022/01/29 07:00:31;;;;;;;3.25;1.67;;;18.40;51.80;;;;;;5008539;28;98741;-67
2022/01/29 07:02:59;;;;;;;3.67;2.00;;;18.40;51.90;;;;;;5008845;28;99128;-66
2022/01/29 07:05:24;;;;;;;4.65;1.98;;;18.40;52.00;;;;;;5009552;28;98219;-66
2022/01/29 07:07:50;;;;;;;3.75;1.80;;;18.30;52.20;;;;;;5009030;28;100790;-67
2022/01/29 07:10:17;;;;;;;4.30;1.90;;;18.30;52.30;;;;;;5008979;28;100151;-66
2022/01/29 07:12:43;;;;;;;4.13;1.83;;;18.20;52.10;;;;;;5008978;28;99806;-67
2022/01/29 07:15:12;;;;;;;4.68;1.90;;;18.20;52.30;;;;;;5010161;28;99192;-67
2022/01/29 07:17:39;;;;;;;5.05;1.98;;;18.20;52.60;;;;;;5010425;28;99014;-67
2022/01/29 07:20:06;;;;;;;8.82;2.00;;;18.20;53.00;;;;;;5011251;28;104130;-66
2022/01/29 07:22:32;;;;;;;7.43;2.05;;;18.10;53.10;;;;;;5010919;28;99552;-65
2022/01/29 07:24:59;;;;;;;4.75;2.33;;;18.10;52.70;;;;;;5012445;28;98531;-66
2022/01/29 07:27:25;;;;;;;7.22;2.30;;;18.00;52.70;;;;;;5013047;28;98974;-66
2022/01/29 07:29:51;;;;;;;7.82;2.08;;;18.00;52.80;;;;;;5012192;28;99845;-67
2022/01/29 07:32:16;;;;;;;6.18;2.13;;;18.00;52.90;;;;;;5017284;28;98545;-67
2022/01/29 07:34:42;;;;;;;3.08;1.95;;;17.90;53.00;;;;;;5015699;28;98837;-65
2022/01/29 07:37:09;;;;;;;6.05;2.17;;;17.90;53.00;;;;;;5011819;28;100924;-66
2022/01/29 07:39:35;;;;;;;5.07;1.90;;;17.80;53.10;;;;;;5013411;28;99873;-65
2022/01/29 07:42:02;;;;;;;9.10;2.30;;;17.80;53.30;;;;;;5013096;28;98640;-66
2022/01/29 07:44:27;;;;;;;4.72;2.05;;;17.80;53.50;;;;;;5013945;28;99120;-66
2022/01/29 07:46:53;;;;;;;6.32;1.98;;;17.80;53.70;;;;;;5013634;28;98732;-67
2022/01/29 07:49:19;;;;;;;8.35;1.85;;;17.80;53.80;;;;;;5013835;28;99141;-67
2022/01/29 07:51:46;;;;;;;5.50;2.03;;;17.80;54.90;;;;;;5012442;28;98662;-67
2022/01/29 07:54:12;;;;;;;8.15;2.45;;;17.70;54.10;;;;;;4994998;28;98009;-66
2022/01/29 07:56:38;;;;;;;5.93;1.90;;;17.70;54.20;;;;;;5012490;28;99075;-66
2022/01/29 07:59:04;;;;;;;7.80;2.10;;;17.60;54.20;;;;;;5012059;28;99904;-66
2022/01/29 08:01:30;;;;;;;6.97;2.20;;;17.70;54.40;;;;;;5012439;28;99660;-66
2022/01/29 08:03:56;;;;;;;8.82;2.45;;;17.60;54.50;;;;;;5011809;28;98939;-67
2022/01/29 08:06:22;;;;;;;6.70;2.13;;;17.60;54.60;;;;;;5010987;28;99155;-67
2022/01/29 08:08:50;;;;;;;10.80;2.22;;;17.60;54.70;;;;;;5011636;28;98879;-67
2022/01/29 08:11:17;;;;;;;5.82;1.90;;;17.60;54.60;;;;;;5012316;28;98521;-67
2022/01/29 08:13:46;;;;;;;5.85;2.05;;;17.60;54.70;;;;;;5011676;28;98992;-67
2022/01/29 08:16:14;;;;;;;6.22;1.80;;;17.50;55.00;;;;;;5012148;28;100326;-65
2022/01/29 08:18:42;;;;;;;3.53;1.95;;;17.50;55.20;;;;;;5012357;28;99197;-67
2022/01/29 08:21:13;;;;;;;6.93;1.80;;;17.50;55.20;;;;;;5013304;28;98555;-67
2022/01/29 08:23:39;;;;;;;6.57;1.90;;;17.50;55.40;;;;;;5013019;28;98601;-68
2022/01/29 08:26:04;;;;;;;3.97;1.83;;;17.50;55.50;;;;;;5011157;28;100057;-68
2022/01/29 08:28:30;;;;;;;3.42;1.77;;;17.50;55.70;;;;;;5012514;28;99614;-66
2022/01/29 08:30:57;;;;;;;4.80;2.00;;;17.50;55.80;;;;;;5015507;28;98964;-67
2022/01/29 08:33:23;;;;;;;5.05;1.80;;;17.50;55.80;;;;;;5016564;28;98968;-65
2022/01/29 08:35:50;;;;;;;6.20;2.35;;;17.50;55.90;;;;;;5013567;28;99113;-66
2022/01/29 08:38:16;;;;;;;7.30;2.20;;;17.50;56.00;;;;;;5013511;28;99855;-68
2022/01/29 08:40:41;;;;;;;4.72;1.92;;;17.50;56.20;;;;;;5011454;28;98893;-66
2022/01/29 08:43:08;;;;;;;6.90;2.13;;;17.40;56.50;;;;;;5011805;28;98356;-65
2022/01/29 08:45:34;;;;;;;20.65;2.50;;;17.50;56.90;;;;;;5011639;28;99177;-66
2022/01/29 08:48:00;;;;;;;9.55;2.10;;;17.40;56.70;;;;;;5010313;28;99195;-65
2022/01/29 08:50:25;;;;;;;8.43;1.85;;;17.40;56.60;;;;;;5010784;28;99460;-65
2022/01/29 08:52:53;;;;;;;7.57;2.10;;;17.40;56.50;;;;;;5011014;28;99042;-65
2022/01/29 08:55:19;;;;;;;5.38;1.92;;;17.40;56.50;;;;;;5011457;28;99113;-66
2022/01/29 08:57:45;;;;;;;7.90;2.17;;;17.40;56.40;;;;;;5012219;28;98815;-66
2022/01/29 09:00:12;;;;;;;5.97;1.85;;;17.30;56.40;;;;;;5011473;28;99302;-66
2022/01/29 09:02:38;;;;;;;3.67;1.85;;;17.30;56.30;;;;;;5012302;28;98671;-67
2022/01/29 09:05:05;;;;;;;5.50;2.03;;;17.30;56.10;;;;;;5011389;28;99092;-66
2022/01/29 09:07:31;;;;;;;5.80;1.70;;;17.20;56.00;;;;;;5011827;28;98621;-68
2022/01/29 09:09:56;;;;;;;4.07;1.65;;;17.20;56.00;;;;;;5010814;28;98645;-66
2022/01/29 09:12:22;;;;;;;4.65;1.70;;;17.20;55.90;;;;;;5012005;28;98881;-68
2022/01/29 09:14:48;;;;;;;8.23;2.00;;;17.20;55.90;;;;;;5010543;28;99787;-68
2022/01/29 09:17:14;;;;;;;5.88;1.60;;;17.20;55.90;;;;;;5010708;28;100617;-67
2022/01/29 09:19:39;;;;;;;4.13;1.88;;;17.10;55.80;;;;;;5010994;28;99053;-66
2022/01/29 09:22:05;;;;;;;4.90;1.90;;;17.10;55.90;;;;;;5011075;28;98829;-67
2022/01/29 09:24:32;;;;;;;3.45;1.40;;;17.10;55.90;;;;;;5010091;28;100148;-66
2022/01/29 09:26:58;;;;;;;5.72;1.40;;;17.10;55.90;;;;;;5010092;28;99922;-66
2022/01/29 09:29:24;;;;;;;6.57;1.60;;;17.10;56.00;;;;;;5010084;28;99310;-67
2022/01/29 09:31:50;;;;;;;4.63;1.83;;;17.00;55.90;;;;;;5010369;28;98277;-67
2022/01/29 09:34:15;;;;;;;4.75;1.65;;;17.00;55.90;;;;;;5009373;28;99691;-67
2022/01/29 09:36:41;;;;;;;3.30;1.60;;;17.00;55.90;;;;;;5009576;28;99183;-66
2022/01/29 09:39:07;;;;;;;2.70;1.50;;;17.00;55.90;;;;;;5008731;28;99731;-67
2022/01/29 09:41:36;;;;;;;4.22;1.60;;;17.00;55.80;;;;;;5009959;28;98877;-67
2022/01/29 09:44:01;;;;;;;6.63;1.63;;;17.00;55.90;;;;;;5006960;28;100375;-67
2022/01/29 09:46:30;;;;;;;3.40;1.60;;;17.00;55.90;;;;;;5008439;28;100179;-67
2022/01/29 09:48:58;;;;;;;5.32;1.58;;;17.00;55.90;;;;;;5008187;28;99199;-65
2022/01/29 09:51:24;;;;;;;28.30;2.80;;;16.90;55.80;;;;;;5009124;28;99206;-67
2022/01/29 09:53:50;;;;;;;22.20;2.15;;;16.90;56.20;;;;;;5007448;28;99263;-66
2022/01/29 09:56:16;;;;;;;18.13;2.03;;;17.00;56.30;;;;;;5007706;28;98777;-67
2022/01/29 09:58:43;;;;;;;27.70;2.50;;;17.00;56.20;;;;;;5008348;28;99177;-66
2022/01/29 10:01:09;;;;;;;23.48;2.75;;;17.00;56.30;;;;;;5008552;28;99171;-68
2022/01/29 10:03:35;;;;;;;20.02;2.10;;;17.10;56.30;;;;;;5007770;28;99848;-66
2022/01/29 10:06:01;;;;;;;15.48;2.22;;;17.10;56.40;;;;;;5008064;28;99313;-69
2022/01/29 10:08:29;;;;;;;30.55;2.70;;;17.10;56.50;;;;;;5009380;28;99161;-69
2022/01/29 10:10:57;;;;;;;27.50;2.58;;;17.10;56.50;;;;;;5011473;28;99789;-69
2022/01/29 10:13:35;;;;;;;15.30;2.20;;;17.10;56.40;;;;;;5013358;28;99202;-69
2022/01/29 10:16:18;;;;;;;23.35;2.63;;;17.10;56.40;;;;;;5012490;28;99232;-70
2022/01/29 10:18:47;;;;;;;45.22;3.22;;;17.10;57.50;;;;;;5010373;28;98619;-70
2022/01/29 10:21:15;;;;;;;27.88;2.55;;;17.10;56.70;;;;;;5010660;28;98695;-71
2022/01/29 10:23:42;;;;;;;31.02;2.63;;;17.10;56.70;;;;;;5008887;28;100378;-71
2022/01/29 10:26:24;;;;;;;23.90;2.53;;;17.20;56.70;;;;;;5009888;28;100324;-72
2022/01/29 10:28:54;;;;;;;24.48;2.60;;;17.20;56.70;;;;;;5009165;28;99294;-72
2022/01/29 10:31:20;;;;;;;25.38;2.47;;;17.20;56.80;;;;;;4991913;28;99129;-71
2022/01/29 10:33:46;;;;;;;28.35;2.85;;;17.20;56.90;;;;;;5009266;28;99674;-72
2022/01/29 10:36:17;;;;;;;28.13;2.88;;;17.20;56.70;;;;;;5009331;28;99082;-70
2022/01/29 10:38:46;;;;;;;17.50;2.35;;;17.20;56.70;;;;;;5009227;28;99962;-72
2022/01/29 10:41:26;;;;;;;15.65;2.00;;;17.10;56.60;;;;;;5009560;28;99128;-72
2022/01/29 10:43:54;;;;;;;17.80;2.13;;;17.10;56.70;;;;;;5008396;28;100573;-71
2022/01/29 10:46:31;;;;;;;21.85;2.60;;;17.10;56.70;;;;;;5009266;28;101712;-73
2022/01/29 10:48:58;;;;;;;16.15;2.15;;;17.10;56.70;;;;;;5009676;28;98684;-72
2022/01/29 10:51:24;;;;;;;21.23;2.40;;;17.20;56.80;;;;;;5009650;28;98529;-72
2022/01/29 10:53:51;;;;;;;18.42;2.10;;;17.20;56.80;;;;;;5008734;28;99975;-72
2022/01/29 10:56:17;;;;;;;16.15;1.98;;;17.20;56.80;;;;;;5010085;28;99524;-72
2022/01/29 10:58:47;;;;;;;15.93;1.88;;;17.20;56.70;;;;;;5009407;28;99065;-72
2022/01/29 11:01:19;;;;;;;14.32;2.00;;;17.20;56.80;;;;;;5010476;28;99017;-72
2022/01/29 11:03:47;;;;;;;15.80;1.80;;;17.20;56.70;;;;;;5009318;28;100514;-70
2022/01/29 11:06:20;;;;;;;16.67;1.95;;;17.20;56.70;;;;;;5008199;28;100831;-72
2022/01/29 11:08:46;;;;;;;11.70;1.83;;;17.20;57.60;;;;;;5009181;28;99022;-72
2022/01/29 11:11:13;;;;;;;18.08;2.00;;;17.20;56.70;;;;;;5010066;28;98155;-69
2022/01/29 11:13:40;;;;;;;11.48;1.83;;;17.20;56.80;;;;;;5008176;28;100279;-71
2022/01/29 11:16:06;;;;;;;10.35;1.60;;;17.10;56.80;;;;;;5008113;28;100690;-71
2022/01/29 11:18:33;;;;;;;16.70;1.98;;;17.10;56.70;;;;;;5008414;28;99240;-72
2022/01/29 11:21:00;;;;;;;10.60;1.52;;;17.10;56.80;;;;;;5008793;28;98556;-71
2022/01/29 11:23:27;;;;;;;7.55;1.70;;;17.10;56.60;;;;;;5008371;28;100121;-71
2022/01/29 11:25:58;;;;;;;8.70;1.63;;;17.10;56.70;;;;;;5008430;28;98809;-72
2022/01/29 11:28:26;;;;;;;11.35;1.50;;;17.10;56.60;;;;;;5009058;28;98638;-71
2022/01/29 11:31:11;;;;;;;9.05;1.95;;;17.00;56.60;;;;;;5009336;28;99002;-72
2022/01/29 11:33:59;;;;;;;12.63;1.90;;;17.00;56.50;;;;;;5008104;28;100690;-72
2022/01/29 11:36:48;;;;;;;10.45;1.60;;;17.00;56.50;;;;;;5008279;28;98824;-71
2022/01/29 11:39:25;;;;;;;7.32;1.63;;;17.00;56.60;;;;;;5008264;28;100070;-72
2022/01/29 11:42:13;;;;;;;13.32;1.85;;;17.00;56.50;;;;;;5008964;28;98986;-71
2022/01/29 11:44:39;;;;;;;6.43;1.40;;;17.00;56.50;;;;;;4993174;28;99988;-71
2022/01/29 11:47:24;;;;;;;7.00;1.58;;;16.90;56.50;;;;;;5008401;28;99554;-71
2022/01/29 11:50:10;;;;;;;6.63;1.27;;;16.90;56.50;;;;;;5008957;28;99092;-72
2022/01/29 11:53:02;;;;;;;6.57;1.52;;;16.90;56.50;;;;;;5010684;28;98885;-72
2022/01/29 11:55:51;;;;;;;9.75;2.33;;;16.90;56.50;;;;;;5011621;28;99038;-71
2022/01/29 11:58:26;;;;;;;7.30;1.50;;;16.90;56.30;;;;;;5013268;28;98833;-72
2022/01/29 12:00:53;;;;;;;7.18;1.25;;;16.90;56.40;;;;;;5014318;28;99030;-72
2022/01/29 12:03:38;;;;;;;9.15;1.40;;;16.80;56.30;;;;;;5015370;28;98304;-72
2022/01/29 12:09:03;;;;;;;4.55;1.48;;;16.80;56.30;;;;;;5007930;28;98909;-71
2022/01/29 12:11:29;;;;;;;5.93;1.35;;;16.90;56.20;;;;;;5009391;28;99209;-71
2022/01/29 12:14:12;;;;;;;7.50;1.50;;;16.90;56.30;;;;;;5010007;28;98680;-71
2022/01/29 12:16:56;;;;;;;5.75;1.33;;;16.80;56.10;;;;;;5010499;28;99414;-71
2022/01/29 12:19:42;;;;;;;6.35;1.50;;;16.80;56.10;;;;;;5013709;28;99890;-72
2022/01/29 12:22:15;;;;;;;4.95;1.40;;;16.80;56.10;;;;;;5018863;28;98620;-70
2022/01/29 12:24:47;;;;;;;4.40;1.02;;;16.80;56.10;;;;;;5019159;28;98938;-70
2022/01/29 12:27:12;;;;;;;11.10;1.10;;;16.80;56.10;;;;;;5017672;28;99453;-70
2022/01/29 12:29:38;;;;;;;3.08;1.20;;;16.80;56.10;;;;;;5018226;28;98090;-70
2022/01/29 12:32:05;;;;;;;3.88;0.98;;;16.80;56.00;;;;;;5018083;28;98615;-69
2022/01/29 12:34:31;;;;;;;5.05;0.90;;;16.90;56.10;;;;;;5018329;28;99204;-70
2022/01/29 12:37:15;;;;;;;2.88;1.10;;;16.90;56.00;;;;;;5017335;28;99375;-70
2022/01/29 12:39:44;;;;;;;5.65;1.17;;;16.90;55.90;;;;;;5014268;28;99630;-69
2022/01/29 12:44:57;;;;;;;49.78;2.70;;;16.90;56.10;;;;;;5009272;28;98588;-70
2022/01/29 12:47:28;;;;;;;49.97;2.85;;;16.90;56.10;;;;;;5009496;28;99050;-70
2022/01/29 12:49:54;;;;;;;25.35;2.50;;;16.90;56.10;;;;;;5010075;28;98978;-71
2022/01/29 12:52:20;;;;;;;45.13;2.65;;;17.00;56.50;;;;;;5010847;28;98760;-69
2022/01/29 12:55:02;;;;;;;26.45;2.30;;;17.00;56.50;;;;;;5010331;28;98154;-71
2022/01/29 12:57:45;;;;;;;28.20;2.70;;;17.20;56.60;;;;;;5009688;28;101758;-70
2022/01/29 13:00:16;;;;;;;20.67;1.83;;;17.30;56.50;;;;;;5010001;28;99914;-69
2022/01/29 13:02:43;;;;;;;23.88;2.67;;;17.50;56.20;;;;;;5009821;28;100838;-69
2022/01/29 13:05:09;;;;;;;25.02;1.98;;;17.60;56.00;;;;;;5009697;28;99163;-70